sensor_id;sensor_type;location;lat;lon;timestamp;P1;durP1;ratioP1;P2;durP2;ratioP2
5710;SDS011;61291;52.524;13.422;2023-07-30T00:01:47;77.43;;;72.30;;
5710;SDS011;61291;52.524;13.422;2023-07-30T00:04:13;81.40;;;75.90;;
5710;SDS011;61291;52.524;13.422;2023-07-30T00:06:38;84.47;;;78.97;;
5710;SDS011;61291;52.524;13.422;2023-07-30T00:09:03;81.63;;;76.30;;
5710;SDS011;61291;52.524;13.422;2023-07-30T00:11:29;81.83;;;75.77;;
5710;SDS011;61291;52.524;13.422;2023-07-30T00:13:54;76.57;;;71.07;;
5710;SDS011;61291;52.524;13.422;2023-07-30T00:16:20;84.87;;;78.30;;
5710;SDS011;61291;52.524;13.422;2023-07-30T00:18:45;85.13;;;78.30;;
5710;SDS011;61291;52.524;13.422;2023-07-30T00:21:11;80.63;;;75.23;;
5710;SDS011;61291;52.524;13.422;2023-07-30T00:23:36;76.27;;;70.87;;
5710;SDS011;61291;52.524;13.422;2023-07-30T00:26:02;70.27;;;65.07;;
5710;SDS011;61291;52.524;13.422;2023-07-30T00:28:27;77.90;;;72.30;;
5710;SDS011;61291;52.524;13.422;2023-07-30T00:30:53;73.30;;;68.30;;
5710;SDS011;61291;52.524;13.422;2023-07-30T00:33:18;76.23;;;71.23;;
5710;SDS011;61291;52.524;13.422;2023-07-30T00:35:44;71.97;;;67.00;;
5710;SDS011;61291;52.524;13.422;2023-07-30T00:38:09;73.47;;;68.43;;
5710;SDS011;61291;52.524;13.422;2023-07-30T00:40:41;90.27;;;84.20;;
5710;SDS011;61291;52.524;13.422;2023-07-30T00:43:07;75.67;;;70.73;;
5710;SDS011;61291;52.524;13.422;2023-07-30T00:45:32;82.93;;;75.33;;
5710;SDS011;61291;52.524;13.422;2023-07-30T00:47:58;79.57;;;74.37;;
5710;SDS011;61291;52.524;13.422;2023-07-30T00:50:23;84.50;;;79.00;;
5710;SDS011;61291;52.524;13.422;2023-07-30T00:52:49;81.57;;;76.33;;
5710;SDS011;61291;52.524;13.422;2023-07-30T00:55:15;76.83;;;71.57;;
5710;SDS011;61291;52.524;13.422;2023-07-30T00:57:41;81.57;;;76.37;;
5710;SDS011;61291;52.524;13.422;2023-07-30T01:00:07;80.83;;;75.57;;
5710;SDS011;61291;52.524;13.422;2023-07-30T01:02:34;76.00;;;70.53;;
5710;SDS011;61291;52.524;13.422;2023-07-30T01:05:00;79.20;;;73.90;;
5710;SDS011;61291;52.524;13.422;2023-07-30T01:07:26;78.30;;;72.80;;
5710;SDS011;61291;52.524;13.422;2023-07-30T01:09:52;75.70;;;70.70;;
5710;SDS011;61291;52.524;13.422;2023-07-30T01:12:18;83.83;;;77.37;;
5710;SDS011;61291;52.524;13.422;2023-07-30T01:14:44;78.67;;;73.27;;
5710;SDS011;61291;52.524;13.422;2023-07-30T01:17:12;77.77;;;72.67;;
5710;SDS011;61291;52.524;13.422;2023-07-30T01:19:38;79.83;;;73.47;;
5710;SDS011;61291;52.524;13.422;2023-07-30T01:22:04;80.67;;;75.23;;
5710;SDS011;61291;52.524;13.422;2023-07-30T01:24:29;78.90;;;73.60;;
5710;SDS011;61291;52.524;13.422;2023-07-30T01:26:55;85.60;;;79.90;;
5710;SDS011;61291;52.524;13.422;2023-07-30T01:29:27;76.03;;;71.03;;
5710;SDS011;61291;52.524;13.422;2023-07-30T01:31:57;81.57;;;76.40;;
5710;SDS011;61291;52.524;13.422;2023-07-30T01:34:29;76.97;;;72.07;;
5710;SDS011;61291;52.524;13.422;2023-07-30T01:36:58;77.67;;;72.47;;
5710;SDS011;61291;52.524;13.422;2023-07-30T01:39:24;77.13;;;71.97;;
5710;SDS011;61291;52.524;13.422;2023-07-30T01:41:52;81.20;;;75.63;;
5710;SDS011;61291;52.524;13.422;2023-07-30T01:44:21;76.53;;;71.73;;
5710;SDS011;61291;52.524;13.422;2023-07-30T01:46:47;77.03;;;71.97;;
5710;SDS011;61291;52.524;13.422;2023-07-30T01:49:12;81.33;;;76.03;;
5710;SDS011;61291;52.524;13.422;2023-07-30T01:51:38;78.13;;;72.87;;
5710;SDS011;61291;52.524;13.422;2023-07-30T01:54:03;82.70;;;77.60;;
5710;SDS011;61291;52.524;13.422;2023-07-30T01:56:29;78.13;;;73.07;;
5710;SDS011;61291;52.524;13.422;2023-07-30T01:58:54;82.87;;;77.57;;
5710;SDS011;61291;52.524;13.422;2023-07-30T02:01:20;78.27;;;73.27;;
5710;SDS011;61291;52.524;13.422;2023-07-30T02:03:45;81.57;;;76.20;;
5710;SDS011;61291;52.524;13.422;2023-07-30T02:06:11;90.03;;;84.50;;
5710;SDS011;61291;52.524;13.422;2023-07-30T02:08:37;85.87;;;79.63;;
5710;SDS011;61291;52.524;13.422;2023-07-30T02:11:02;81.63;;;76.40;;
5710;SDS011;61291;52.524;13.422;2023-07-30T02:13:28;86.50;;;81.03;;
5710;SDS011;61291;52.524;13.422;2023-07-30T02:15:53;86.23;;;80.67;;
5710;SDS011;61291;52.524;13.422;2023-07-30T02:18:19;85.03;;;79.07;;
5710;SDS011;61291;52.524;13.422;2023-07-30T02:20:44;89.57;;;83.87;;
5710;SDS011;61291;52.524;13.422;2023-07-30T02:23:10;87.20;;;81.30;;
5710;SDS011;61291;52.524;13.422;2023-07-30T02:25:35;88.77;;;82.67;;
5710;SDS011;61291;52.524;13.422;2023-07-30T02:28:02;90.60;;;84.07;;
5710;SDS011;61291;52.524;13.422;2023-07-30T02:30:27;89.57;;;83.57;;
5710;SDS011;61291;52.524;13.422;2023-07-30T02:32:53;86.27;;;80.53;;
5710;SDS011;61291;52.524;13.422;2023-07-30T02:35:19;88.57;;;82.40;;
5710;SDS011;61291;52.524;13.422;2023-07-30T02:37:44;86.43;;;80.60;;
5710;SDS011;61291;52.524;13.422;2023-07-30T02:40:10;87.60;;;81.40;;
5710;SDS011;61291;52.524;13.422;2023-07-30T02:42:36;90.13;;;83.40;;
5710;SDS011;61291;52.524;13.422;2023-07-30T02:45:01;84.63;;;78.53;;
5710;SDS011;61291;52.524;13.422;2023-07-30T02:47:27;84.90;;;79.20;;
5710;SDS011;61291;52.524;13.422;2023-07-30T02:49:53;81.03;;;75.33;;
5710;SDS011;61291;52.524;13.422;2023-07-30T02:52:18;90.70;;;84.20;;
5710;SDS011;61291;52.524;13.422;2023-07-30T02:54:43;85.33;;;79.60;;
5710;SDS011;61291;52.524;13.422;2023-07-30T02:57:09;86.43;;;79.37;;
5710;SDS011;61291;52.524;13.422;2023-07-30T02:59:36;90.80;;;84.50;;
5710;SDS011;61291;52.524;13.422;2023-07-30T03:02:02;85.83;;;80.00;;
5710;SDS011;61291;52.524;13.422;2023-07-30T03:04:29;88.05;;;81.72;;
5710;SDS011;61291;52.524;13.422;2023-07-30T03:06:55;87.37;;;81.37;;
5710;SDS011;61291;52.524;13.422;2023-07-30T03:09:21;88.43;;;81.73;;
5710;SDS011;61291;52.524;13.422;2023-07-30T03:11:46;91.40;;;85.03;;
5710;SDS011;61291;52.524;13.422;2023-07-30T03:14:12;84.93;;;79.00;;
5710;SDS011;61291;52.524;13.422;2023-07-30T03:16:37;90.40;;;83.87;;
5710;SDS011;61291;52.524;13.422;2023-07-30T03:19:03;81.20;;;75.03;;
5710;SDS011;61291;52.524;13.422;2023-07-30T03:21:28;83.27;;;76.90;;
5710;SDS011;61291;52.524;13.422;2023-07-30T03:23:54;85.50;;;79.33;;
5710;SDS011;61291;52.524;13.422;2023-07-30T03:26:19;85.87;;;79.00;;
5710;SDS011;61291;52.524;13.422;2023-07-30T03:28:45;84.73;;;78.30;;
5710;SDS011;61291;52.524;13.422;2023-07-30T03:31:10;88.03;;;81.77;;
5710;SDS011;61291;52.524;13.422;2023-07-30T03:33:36;84.17;;;78.07;;
5710;SDS011;61291;52.524;13.422;2023-07-30T03:36:04;93.73;;;87.30;;
5710;SDS011;61291;52.524;13.422;2023-07-30T03:38:29;87.93;;;81.47;;
5710;SDS011;61291;52.524;13.422;2023-07-30T03:40:55;82.30;;;76.10;;
5710;SDS011;61291;52.524;13.422;2023-07-30T03:43:20;87.37;;;80.63;;
5710;SDS011;61291;52.524;13.422;2023-07-30T03:45:46;84.80;;;78.40;;
5710;SDS011;61291;52.524;13.422;2023-07-30T03:48:13;90.90;;;84.40;;
5710;SDS011;61291;52.524;13.422;2023-07-30T03:50:39;89.30;;;82.80;;
5710;SDS011;61291;52.524;13.422;2023-07-30T03:53:04;91.50;;;84.90;;
5710;SDS011;61291;52.524;13.422;2023-07-30T03:55:29;84.72;;;78.53;;
5710;SDS011;61291;52.524;13.422;2023-07-30T03:57:55;89.63;;;83.33;;
5710;SDS011;61291;52.524;13.422;2023-07-30T04:00:21;91.80;;;85.37;;
5710;SDS011;61291;52.524;13.422;2023-07-30T04:02:46;87.83;;;81.13;;
5710;SDS011;61291;52.524;13.422;2023-07-30T04:05:12;94.23;;;87.00;;
5710;SDS011;61291;52.524;13.422;2023-07-30T04:07:37;90.70;;;84.00;;
5710;SDS011;61291;52.524;13.422;2023-07-30T04:10:03;92.50;;;85.50;;
5710;SDS011;61291;52.524;13.422;2023-07-30T04:12:29;88.57;;;82.23;;
5710;SDS011;61291;52.524;13.422;2023-07-30T04:14:54;91.13;;;84.33;;
5710;SDS011;61291;52.524;13.422;2023-07-30T04:17:20;85.37;;;79.07;;
5710;SDS011;61291;52.524;13.422;2023-07-30T04:19:45;82.80;;;76.77;;
5710;SDS011;61291;52.524;13.422;2023-07-30T04:22:11;89.83;;;82.67;;
5710;SDS011;61291;52.524;13.422;2023-07-30T04:24:36;84.07;;;76.73;;
5710;SDS011;61291;52.524;13.422;2023-07-30T04:27:01;87.87;;;81.50;;
5710;SDS011;61291;52.524;13.422;2023-07-30T04:29:27;85.13;;;79.27;;
5710;SDS011;61291;52.524;13.422;2023-07-30T04:31:53;89.77;;;83.50;;
5710;SDS011;61291;52.524;13.422;2023-07-30T04:34:18;82.67;;;77.27;;
5710;SDS011;61291;52.524;13.422;2023-07-30T04:36:44;82.57;;;77.00;;
5710;SDS011;61291;52.524;13.422;2023-07-30T04:39:09;88.43;;;81.73;;
5710;SDS011;61291;52.524;13.422;2023-07-30T04:41:37;85.13;;;79.53;;
5710;SDS011;61291;52.524;13.422;2023-07-30T04:44:02;80.77;;;75.23;;
5710;SDS011;61291;52.524;13.422;2023-07-30T04:46:28;82.80;;;77.40;;
5710;SDS011;61291;52.524;13.422;2023-07-30T04:48:54;80.50;;;74.90;;
5710;SDS011;61291;52.524;13.422;2023-07-30T04:51:20;89.27;;;83.47;;
5710;SDS011;61291;52.524;13.422;2023-07-30T04:53:45;95.03;;;88.77;;
5710;SDS011;61291;52.524;13.422;2023-07-30T04:56:11;87.73;;;81.93;;
5710;SDS011;61291;52.524;13.422;2023-07-30T04:58:36;88.03;;;81.70;;
5710;SDS011;61291;52.524;13.422;2023-07-30T05:01:02;92.73;;;86.67;;
5710;SDS011;61291;52.524;13.422;2023-07-30T05:03:27;88.70;;;82.47;;
5710;SDS011;61291;52.524;13.422;2023-07-30T05:05:53;89.70;;;83.80;;
5710;SDS011;61291;52.524;13.422;2023-07-30T05:08:18;80.47;;;74.97;;
5710;SDS011;61291;52.524;13.422;2023-07-30T05:10:44;92.60;;;86.60;;
5710;SDS011;61291;52.524;13.422;2023-07-30T05:13:09;88.93;;;83.20;;
5710;SDS011;61291;52.524;13.422;2023-07-30T05:15:35;91.50;;;85.80;;
5710;SDS011;61291;52.524;13.422;2023-07-30T05:18:00;88.50;;;82.77;;
5710;SDS011;61291;52.524;13.422;2023-07-30T05:20:26;86.10;;;80.60;;
5710;SDS011;61291;52.524;13.422;2023-07-30T05:22:51;97.60;;;91.23;;
5710;SDS011;61291;52.524;13.422;2023-07-30T05:25:17;84.93;;;79.43;;
5710;SDS011;61291;52.524;13.422;2023-07-30T05:27:42;89.63;;;83.97;;
5710;SDS011;61291;52.524;13.422;2023-07-30T05:30:08;83.97;;;78.30;;
5710;SDS011;61291;52.524;13.422;2023-07-30T05:32:33;82.77;;;77.37;;
5710;SDS011;61291;52.524;13.422;2023-07-30T05:34:59;82.60;;;76.80;;
5710;SDS011;61291;52.524;13.422;2023-07-30T05:37:24;86.30;;;80.03;;
5710;SDS011;61291;52.524;13.422;2023-07-30T05:39:50;84.67;;;79.00;;
5710;SDS011;61291;52.524;13.422;2023-07-30T05:42:15;74.73;;;69.90;;
5710;SDS011;61291;52.524;13.422;2023-07-30T05:44:41;71.03;;;66.43;;
5710;SDS011;61291;52.524;13.422;2023-07-30T05:47:06;73.27;;;68.27;;
5710;SDS011;61291;52.524;13.422;2023-07-30T05:49:31;64.53;;;60.30;;
5710;SDS011;61291;52.524;13.422;2023-07-30T05:51:57;66.40;;;61.33;;
5710;SDS011;61291;52.524;13.422;2023-07-30T05:54:23;64.27;;;60.10;;
5710;SDS011;61291;52.524;13.422;2023-07-30T05:56:48;62.10;;;57.90;;
5710;SDS011;61291;52.524;13.422;2023-07-30T05:59:13;62.27;;;58.00;;
5710;SDS011;61291;52.524;13.422;2023-07-30T06:01:39;69.43;;;64.17;;
5710;SDS011;61291;52.524;13.422;2023-07-30T06:04:05;61.03;;;57.13;;
5710;SDS011;61291;52.524;13.422;2023-07-30T06:06:30;57.97;;;54.17;;
5710;SDS011;61291;52.524;13.422;2023-07-30T06:08:56;61.37;;;56.77;;
5710;SDS011;61291;52.524;13.422;2023-07-30T06:11:21;59.80;;;55.90;;
5710;SDS011;61291;52.524;13.422;2023-07-30T06:13:47;58.20;;;54.30;;
5710;SDS011;61291;52.524;13.422;2023-07-30T06:16:13;55.80;;;52.10;;
5710;SDS011;61291;52.524;13.422;2023-07-30T06:18:39;55.83;;;52.07;;
5710;SDS011;61291;52.524;13.422;2023-07-30T06:21:04;53.80;;;50.30;;
5710;SDS011;61291;52.524;13.422;2023-07-30T06:23:30;56.23;;;52.27;;
5710;SDS011;61291;52.524;13.422;2023-07-30T06:25:55;52.77;;;49.37;;
5710;SDS011;61291;52.524;13.422;2023-07-30T06:28:21;54.87;;;51.27;;
5710;SDS011;61291;52.524;13.422;2023-07-30T06:30:46;55.23;;;51.67;;
5710;SDS011;61291;52.524;13.422;2023-07-30T06:33:12;53.17;;;49.77;;
5710;SDS011;61291;52.524;13.422;2023-07-30T06:35:38;56.07;;;52.40;;
5710;SDS011;61291;52.524;13.422;2023-07-30T06:38:05;53.70;;;50.20;;
5710;SDS011;61291;52.524;13.422;2023-07-30T06:40:33;55.07;;;51.40;;
5710;SDS011;61291;52.524;13.422;2023-07-30T06:42:58;57.37;;;53.77;;
5710;SDS011;61291;52.524;13.422;2023-07-30T06:45:24;57.00;;;53.30;;
5710;SDS011;61291;52.524;13.422;2023-07-30T06:47:49;58.00;;;54.30;;
5710;SDS011;61291;52.524;13.422;2023-07-30T06:50:15;56.20;;;52.50;;
5710;SDS011;61291;52.524;13.422;2023-07-30T06:52:40;53.33;;;49.90;;
5710;SDS011;61291;52.524;13.422;2023-07-30T06:55:06;57.00;;;53.30;;
5710;SDS011;61291;52.524;13.422;2023-07-30T06:57:31;57.93;;;54.10;;
5710;SDS011;61291;52.524;13.422;2023-07-30T06:59:57;61.20;;;56.80;;
5710;SDS011;61291;52.524;13.422;2023-07-30T07:02:23;58.37;;;54.47;;
5710;SDS011;61291;52.524;13.422;2023-07-30T07:04:49;60.13;;;56.37;;
5710;SDS011;61291;52.524;13.422;2023-07-30T07:07:15;55.50;;;51.70;;
5710;SDS011;61291;52.524;13.422;2023-07-30T07:09:40;58.60;;;54.90;;
5710;SDS011;61291;52.524;13.422;2023-07-30T07:12:06;57.20;;;53.30;;
5710;SDS011;61291;52.524;13.422;2023-07-30T07:14:32;52.27;;;48.87;;
5710;SDS011;61291;52.524;13.422;2023-07-30T07:16:57;55.70;;;52.20;;
5710;SDS011;61291;52.524;13.422;2023-07-30T07:19:23;48.67;;;45.47;;
5710;SDS011;61291;52.524;13.422;2023-07-30T07:21:49;55.30;;;51.70;;
5710;SDS011;61291;52.524;13.422;2023-07-30T07:24:14;60.17;;;56.07;;
5710;SDS011;61291;52.524;13.422;2023-07-30T07:26:41;57.20;;;53.40;;
5710;SDS011;61291;52.524;13.422;2023-07-30T07:29:06;59.93;;;56.03;;
5710;SDS011;61291;52.524;13.422;2023-07-30T07:31:32;56.53;;;53.00;;
5710;SDS011;61291;52.524;13.422;2023-07-30T07:33:57;64.43;;;60.20;;
5710;SDS011;61291;52.524;13.422;2023-07-30T07:36:23;65.93;;;61.67;;
5710;SDS011;61291;52.524;13.422;2023-07-30T07:38:48;56.87;;;53.07;;
5710;SDS011;61291;52.524;13.422;2023-07-30T07:41:17;53.27;;;49.87;;
5710;SDS011;61291;52.524;13.422;2023-07-30T07:43:43;53.50;;;49.67;;
5710;SDS011;61291;52.524;13.422;2023-07-30T07:46:12;57.50;;;53.80;;
5710;SDS011;61291;52.524;13.422;2023-07-30T07:48:40;55.93;;;52.20;;
5710;SDS011;61291;52.524;13.422;2023-07-30T07:51:08;61.77;;;57.47;;
5710;SDS011;61291;52.524;13.422;2023-07-30T07:53:35;58.80;;;54.93;;
5710;SDS011;61291;52.524;13.422;2023-07-30T07:56:01;57.53;;;53.63;;
5710;SDS011;61291;52.524;13.422;2023-07-30T07:58:27;60.50;;;56.40;;
5710;SDS011;61291;52.524;13.422;2023-07-30T08:00:56;53.70;;;49.80;;
5710;SDS011;61291;52.524;13.422;2023-07-30T08:03:22;50.80;;;47.47;;
5710;SDS011;61291;52.524;13.422;2023-07-30T08:05:48;58.67;;;54.77;;
5710;SDS011;61291;52.524;13.422;2023-07-30T08:08:14;56.63;;;52.50;;
5710;SDS011;61291;52.524;13.422;2023-07-30T08:10:40;56.77;;;52.80;;
5710;SDS011;61291;52.524;13.422;2023-07-30T08:13:08;57.63;;;53.90;;
5710;SDS011;61291;52.524;13.422;2023-07-30T08:15:37;55.07;;;51.27;;
5710;SDS011;61291;52.524;13.422;2023-07-30T08:18:03;55.57;;;51.90;;
5710;SDS011;61291;52.524;13.422;2023-07-30T08:20:29;55.30;;;51.70;;
5710;SDS011;61291;52.524;13.422;2023-07-30T08:22:54;53.57;;;50.17;;
5710;SDS011;61291;52.524;13.422;2023-07-30T08:25:20;61.00;;;56.90;;
5710;SDS011;61291;52.524;13.422;2023-07-30T08:27:45;60.23;;;56.23;;
5710;SDS011;61291;52.524;13.422;2023-07-30T08:30:11;63.03;;;58.78;;
5710;SDS011;61291;52.524;13.422;2023-07-30T08:32:37;65.33;;;60.73;;
5710;SDS011;61291;52.524;13.422;2023-07-30T08:35:03;61.93;;;57.83;;
5710;SDS011;61291;52.524;13.422;2023-07-30T08:37:29;56.40;;;52.60;;
5710;SDS011;61291;52.524;13.422;2023-07-30T08:39:54;55.70;;;51.90;;
5710;SDS011;61291;52.524;13.422;2023-07-30T08:42:20;61.37;;;57.33;;
5710;SDS011;61291;52.524;13.422;2023-07-30T08:44:45;59.67;;;55.33;;
5710;SDS011;61291;52.524;13.422;2023-07-30T08:47:11;56.97;;;53.27;;
5710;SDS011;61291;52.524;13.422;2023-07-30T08:49:36;67.70;;;62.60;;
5710;SDS011;61291;52.524;13.422;2023-07-30T08:52:02;67.30;;;62.70;;
5710;SDS011;61291;52.524;13.422;2023-07-30T08:54:29;63.80;;;59.63;;
5710;SDS011;61291;52.524;13.422;2023-07-30T08:56:56;64.80;;;60.50;;
5710;SDS011;61291;52.524;13.422;2023-07-30T08:59:22;64.40;;;59.80;;
5710;SDS011;61291;52.524;13.422;2023-07-30T09:01:50;67.10;;;62.80;;
5710;SDS011;61291;52.524;13.422;2023-07-30T09:04:17;60.63;;;56.47;;
5710;SDS011;61291;52.524;13.422;2023-07-30T09:06:43;64.07;;;59.87;;
5710;SDS011;61291;52.524;13.422;2023-07-30T09:09:12;60.33;;;56.23;;
5710;SDS011;61291;52.524;13.422;2023-07-30T09:11:38;61.07;;;56.77;;
5710;SDS011;61291;52.524;13.422;2023-07-30T09:14:05;62.07;;;57.97;;
5710;SDS011;61291;52.524;13.422;2023-07-30T09:16:31;63.47;;;59.17;;
5710;SDS011;61291;52.524;13.422;2023-07-30T09:18:57;71.37;;;66.40;;
5710;SDS011;61291;52.524;13.422;2023-07-30T09:21:32;60.57;;;56.20;;
5710;SDS011;61291;52.524;13.422;2023-07-30T09:23:59;63.90;;;58.17;;
5710;SDS011;61291;52.524;13.422;2023-07-30T09:26:36;63.80;;;58.63;;
5710;SDS011;61291;52.524;13.422;2023-07-30T09:29:09;61.43;;;57.33;;
5710;SDS011;61291;52.524;13.422;2023-07-30T09:31:45;62.90;;;58.60;;
5710;SDS011;61291;52.524;13.422;2023-07-30T09:34:17;60.33;;;56.27;;
5710;SDS011;61291;52.524;13.422;2023-07-30T09:36:46;54.30;;;50.70;;
5710;SDS011;61291;52.524;13.422;2023-07-30T09:39:16;59.50;;;55.50;;
5710;SDS011;61291;52.524;13.422;2023-07-30T09:41:44;65.67;;;61.00;;
5710;SDS011;61291;52.524;13.422;2023-07-30T09:44:10;68.07;;;63.60;;
5710;SDS011;61291;52.524;13.422;2023-07-30T09:46:43;64.20;;;60.07;;
5710;SDS011;61291;52.524;13.422;2023-07-30T09:49:12;61.23;;;57.10;;
5710;SDS011;61291;52.524;13.422;2023-07-30T09:51:38;63.30;;;58.90;;
5710;SDS011;61291;52.524;13.422;2023-07-30T09:54:05;68.57;;;63.80;;
5710;SDS011;61291;52.524;13.422;2023-07-30T09:56:32;54.50;;;50.80;;
5710;SDS011;61291;52.524;13.422;2023-07-30T09:58:58;68.70;;;63.90;;
5710;SDS011;61291;52.524;13.422;2023-07-30T10:01:23;53.67;;;49.77;;
5710;SDS011;61291;52.524;13.422;2023-07-30T10:03:52;68.93;;;64.23;;
5710;SDS011;61291;52.524;13.422;2023-07-30T10:06:21;61.00;;;57.10;;
5710;SDS011;61291;52.524;13.422;2023-07-30T10:08:48;66.17;;;61.40;;
5710;SDS011;61291;52.524;13.422;2023-07-30T10:11:15;70.27;;;65.20;;
5710;SDS011;61291;52.524;13.422;2023-07-30T10:13:41;60.27;;;56.27;;
5710;SDS011;61291;52.524;13.422;2023-07-30T10:16:09;71.90;;;67.17;;
5710;SDS011;61291;52.524;13.422;2023-07-30T10:18:39;64.27;;;60.17;;
5710;SDS011;61291;52.524;13.422;2023-07-30T10:21:10;68.13;;;63.60;;
5710;SDS011;61291;52.524;13.422;2023-07-30T10:23:46;73.60;;;68.87;;
5710;SDS011;61291;52.524;13.422;2023-07-30T10:26:26;60.77;;;56.73;;
5710;SDS011;61291;52.524;13.422;2023-07-30T10:31:47;65.13;;;60.83;;
5710;SDS011;61291;52.524;13.422;2023-07-30T10:34:16;61.13;;;57.07;;
5710;SDS011;61291;52.524;13.422;2023-07-30T10:36:43;55.83;;;52.17;;
5710;SDS011;61291;52.524;13.422;2023-07-30T10:41:37;58.50;;;54.77;;
5710;SDS011;61291;52.524;13.422;2023-07-30T10:44:03;56.80;;;52.77;;
5710;SDS011;61291;52.524;13.422;2023-07-30T10:46:28;60.53;;;56.13;;
5710;SDS011;61291;52.524;13.422;2023-07-30T10:48:54;64.37;;;59.40;;
5710;SDS011;61291;52.524;13.422;2023-07-30T10:51:20;63.50;;;58.70;;
5710;SDS011;61291;52.524;13.422;2023-07-30T10:53:46;68.70;;;63.97;;
5710;SDS011;61291;52.524;13.422;2023-07-30T10:56:13;64.73;;;60.20;;
5710;SDS011;61291;52.524;13.422;2023-07-30T10:58:40;63.30;;;59.00;;
5710;SDS011;61291;52.524;13.422;2023-07-30T11:01:08;66.77;;;62.27;;
5710;SDS011;61291;52.524;13.422;2023-07-30T11:03:34;64.00;;;59.70;;
5710;SDS011;61291;52.524;13.422;2023-07-30T11:06:00;61.63;;;57.13;;
5710;SDS011;61291;52.524;13.422;2023-07-30T11:08:40;50.97;;;47.27;;
5710;SDS011;61291;52.524;13.422;2023-07-30T11:11:07;57.50;;;53.50;;
5710;SDS011;61291;52.524;13.422;2023-07-30T11:13:41;57.55;;;53.53;;
5710;SDS011;61291;52.524;13.422;2023-07-30T11:16:08;64.33;;;59.27;;
5710;SDS011;61291;52.524;13.422;2023-07-30T11:18:35;62.30;;;58.10;;
5710;SDS011;61291;52.524;13.422;2023-07-30T11:21:02;66.50;;;62.00;;
5710;SDS011;61291;52.524;13.422;2023-07-30T11:23:32;59.80;;;55.30;;
5710;SDS011;61291;52.524;13.422;2023-07-30T11:25:59;63.53;;;59.27;;
5710;SDS011;61291;52.524;13.422;2023-07-30T11:31:01;61.33;;;56.90;;
5710;SDS011;61291;52.524;13.422;2023-07-30T11:33:29;64.50;;;59.87;;
5710;SDS011;61291;52.524;13.422;2023-07-30T11:35:56;67.50;;;62.63;;
5710;SDS011;61291;52.524;13.422;2023-07-30T11:38:22;58.57;;;54.07;;
5710;SDS011;61291;52.524;13.422;2023-07-30T11:40:49;67.83;;;63.07;;
5710;SDS011;61291;52.524;13.422;2023-07-30T11:43:16;66.17;;;61.77;;
5710;SDS011;61291;52.524;13.422;2023-07-30T11:45:42;65.67;;;61.17;;
5710;SDS011;61291;52.524;13.422;2023-07-30T11:48:10;68.13;;;63.63;;
5710;SDS011;61291;52.524;13.422;2023-07-30T11:50:49;64.27;;;59.57;;
5710;SDS011;61291;52.524;13.422;2023-07-30T11:53:16;63.63;;;58.73;;
5710;SDS011;61291;52.524;13.422;2023-07-30T11:55:43;71.00;;;66.30;;
5710;SDS011;61291;52.524;13.422;2023-07-30T11:58:10;70.53;;;65.83;;
5710;SDS011;61291;52.524;13.422;2023-07-30T12:00:37;69.70;;;65.00;;
5710;SDS011;61291;52.524;13.422;2023-07-30T12:03:04;64.67;;;60.37;;
5710;SDS011;61291;52.524;13.422;2023-07-30T12:05:34;70.90;;;66.20;;
5710;SDS011;61291;52.524;13.422;2023-07-30T12:08:01;65.90;;;61.50;;
5710;SDS011;61291;52.524;13.422;2023-07-30T12:10:45;63.80;;;59.57;;
5710;SDS011;61291;52.524;13.422;2023-07-30T12:13:16;60.17;;;55.67;;
5710;SDS011;61291;52.524;13.422;2023-07-30T12:15:51;63.10;;;58.80;;
5710;SDS011;61291;52.524;13.422;2023-07-30T12:18:21;57.30;;;53.50;;
5710;SDS011;61291;52.524;13.422;2023-07-30T12:20:51;64.20;;;59.60;;
5710;SDS011;61291;52.524;13.422;2023-07-30T12:23:17;65.60;;;61.10;;
5710;SDS011;61291;52.524;13.422;2023-07-30T12:25:44;61.77;;;57.57;;
5710;SDS011;61291;52.524;13.422;2023-07-30T12:28:10;62.10;;;57.80;;
5710;SDS011;61291;52.524;13.422;2023-07-30T12:30:36;67.10;;;62.50;;
5710;SDS011;61291;52.524;13.422;2023-07-30T12:33:02;62.63;;;57.93;;
5710;SDS011;61291;52.524;13.422;2023-07-30T12:35:28;73.00;;;67.83;;
5710;SDS011;61291;52.524;13.422;2023-07-30T12:37:54;66.43;;;61.80;;
5710;SDS011;61291;52.524;13.422;2023-07-30T12:40:20;64.50;;;59.80;;
5710;SDS011;61291;52.524;13.422;2023-07-30T12:42:45;64.33;;;60.20;;
5710;SDS011;61291;52.524;13.422;2023-07-30T12:45:11;58.47;;;54.10;;
5710;SDS011;61291;52.524;13.422;2023-07-30T12:47:36;67.50;;;62.90;;
5710;SDS011;61291;52.524;13.422;2023-07-30T12:50:02;67.67;;;62.93;;
5710;SDS011;61291;52.524;13.422;2023-07-30T12:52:28;71.13;;;66.43;;
5710;SDS011;61291;52.524;13.422;2023-07-30T12:54:54;71.40;;;66.70;;
5710;SDS011;61291;52.524;13.422;2023-07-30T12:57:19;59.97;;;55.70;;
5710;SDS011;61291;52.524;13.422;2023-07-30T12:59:45;68.73;;;64.10;;
5710;SDS011;61291;52.524;13.422;2023-07-30T13:02:10;66.17;;;61.67;;
5710;SDS011;61291;52.524;13.422;2023-07-30T13:04:36;65.13;;;60.63;;
5710;SDS011;61291;52.524;13.422;2023-07-30T13:07:01;63.43;;;59.23;;
5710;SDS011;61291;52.524;13.422;2023-07-30T13:09:27;63.47;;;59.30;;
5710;SDS011;61291;52.524;13.422;2023-07-30T13:11:53;59.90;;;55.85;;
5710;SDS011;61291;52.524;13.422;2023-07-30T13:14:19;61.27;;;57.17;;
5710;SDS011;61291;52.524;13.422;2023-07-30T13:16:44;55.50;;;51.70;;
5710;SDS011;61291;52.524;13.422;2023-07-30T13:19:10;60.83;;;56.77;;
5710;SDS011;61291;52.524;13.422;2023-07-30T13:21:35;60.73;;;56.63;;
5710;SDS011;61291;52.524;13.422;2023-07-30T13:24:01;62.93;;;58.67;;
5710;SDS011;61291;52.524;13.422;2023-07-30T13:26:26;64.73;;;60.13;;
5710;SDS011;61291;52.524;13.422;2023-07-30T13:28:52;73.03;;;67.90;;
5710;SDS011;61291;52.524;13.422;2023-07-30T13:31:17;61.20;;;57.23;;
5710;SDS011;61291;52.524;13.422;2023-07-30T13:33:43;67.07;;;62.47;;
5710;SDS011;61291;52.524;13.422;2023-07-30T13:36:11;56.67;;;53.03;;
5710;SDS011;61291;52.524;13.422;2023-07-30T13:38:38;63.83;;;59.43;;
5710;SDS011;61291;52.524;13.422;2023-07-30T13:41:04;58.10;;;54.23;;
5710;SDS011;61291;52.524;13.422;2023-07-30T13:43:30;64.07;;;59.97;;
5710;SDS011;61291;52.524;13.422;2023-07-30T13:45:56;57.87;;;53.97;;
5710;SDS011;61291;52.524;13.422;2023-07-30T13:48:22;60.03;;;56.03;;
5710;SDS011;61291;52.524;13.422;2023-07-30T13:50:48;58.80;;;55.10;;
5710;SDS011;61291;52.524;13.422;2023-07-30T13:53:14;56.60;;;52.70;;
5710;SDS011;61291;52.524;13.422;2023-07-30T13:55:39;59.30;;;55.20;;
5710;SDS011;61291;52.524;13.422;2023-07-30T13:58:05;56.73;;;52.90;;
5710;SDS011;61291;52.524;13.422;2023-07-30T14:00:30;63.47;;;59.27;;
5710;SDS011;61291;52.524;13.422;2023-07-30T14:02:56;51.43;;;47.83;;
5710;SDS011;61291;52.524;13.422;2023-07-30T14:05:21;58.70;;;54.70;;
5710;SDS011;61291;52.524;13.422;2023-07-30T14:07:47;59.23;;;54.93;;
5710;SDS011;61291;52.524;13.422;2023-07-30T14:10:14;56.63;;;52.97;;
5710;SDS011;61291;52.524;13.422;2023-07-30T14:12:40;54.63;;;50.80;;
5710;SDS011;61291;52.524;13.422;2023-07-30T14:15:06;57.70;;;53.90;;
5710;SDS011;61291;52.524;13.422;2023-07-30T14:17:32;55.20;;;51.30;;
5710;SDS011;61291;52.524;13.422;2023-07-30T14:19:57;53.00;;;49.40;;
5710;SDS011;61291;52.524;13.422;2023-07-30T14:22:23;55.67;;;51.20;;
5710;SDS011;61291;52.524;13.422;2023-07-30T14:24:48;56.20;;;52.40;;